Thunder radar more information blitzortung!


Löydät sääaseman tiedot myös:

European Weather Network

Finland Weather Exchange

Weather Underground

AWEKAS



Weather Underground säähistoriasivu

Päivittäin yhteenveto Marraskuu 16, 2017 Yksiköt:  Englantilaiset    Metriset   Molemmat
« Edellinen Päivä
Seuraava Päivä »
Päivittäin Viikoittain Kuukausittain Vuosittain Mukautettu
  Korkea: Matala: Keskiarvo:
Lämpötila: TemperatureC °F 0.0 °F 0.9 °F
Kastepiste: DewpointC °F -0.4 °F 0.4 °F
Kosteus: Humidity % 94 % 96 %
Tuulen nopeus: WindSpeedKMH mph 0.0 mph 1.6 mph
Tuulenpuuska: WindSpeedGustKMH mph - -
Tuuli:- - SW
Ilmanpaine: PressurehPa in 1003.9 in -
Sade: 0.0 in    
Historical Graphs
 
 
Taulukkotiedot Marraskuu 16, 2017
Aika Lämpötila Kastepiste Ilmanpaine Tuuli Tuulen nopeus Tuulenpuuska Kosteus Sademäärä (tunneittain)
TemperatureC °F DewpointC °F PressurehPa in Calm     Humidity % HourlyPrecipMM in
00:00 0.7 °F 0.4 °F 1003.9 in Calm     98 % 0.0 in
00:15 0.7 °F 0.4 °F 1003.9 in Calm   4.8 mph 98 % 0.0 in
00:30 0.6 °F 0.3 °F 1003.9 in Calm     98 % 0.0 in
00:45 0.7 °F 0.4 °F 1004.3 in SW 1.6 mph 8.0 mph 98 % 0.0 in
01:00 0.7 °F 0.4 °F 1004.3 in Calm   4.8 mph 98 % 0.0 in
01:15 0.6 °F 0.3 °F 1004.3 in SW 1.6 mph 8.0 mph 98 % 0.0 in
01:30 0.6 °F 0.1 °F 1004.3 in WSW 1.6 mph 6.4 mph 97 % 0.0 in
01:45 0.6 °F 0.1 °F 1004.3 in West 1.6 mph 6.4 mph 97 % 0.0 in
02:00 0.6 °F 0.1 °F 1004.6 in West 1.6 mph 6.4 mph 97 % 0.0 in
02:15 0.5 °F 0.1 °F 1004.6 in West 1.6 mph 4.8 mph 97 % 0.0 in
02:30 0.4 °F 0.0 °F 1004.6 in West 1.6 mph 4.8 mph 97 % 0.0 in
02:45 0.3 °F -0.1 °F 1004.6 in WSW 1.6 mph 4.8 mph 97 % 0.0 in
03:00 0.3 °F -0.1 °F 1005.0 in SW 1.6 mph 6.4 mph 97 % 0.0 in
03:15 0.3 °F -0.1 °F 1005.0 in SSW 1.6 mph 8.0 mph 97 % 0.0 in
03:30 0.6 °F 0.1 °F 1005.3 in SSW 1.6 mph 4.8 mph 97 % 0.0 in
03:45 0.7 °F 0.4 °F 1005.3 in SW 1.6 mph 8.0 mph 98 % 0.0 in
04:00 0.8 °F 0.4 °F 1005.3 in Calm   4.8 mph 97 % 0.0 in
04:15 0.9 °F 0.7 °F 1005.3 in SW 1.6 mph 6.4 mph 98 % 0.0 in
04:30 1.0 °F 0.7 °F 1005.0 in Calm   6.4 mph 98 % 0.0 in
04:45 1.1 °F 0.6 °F 1005.3 in Calm   3.2 mph 97 % 0.0 in
05:00 1.1 °F 0.7 °F 1005.3 in SW 1.6 mph 6.4 mph 97 % 0.0 in
05:15 1.2 °F 0.9 °F 1005.3 in SW 1.6 mph 4.8 mph 98 % 0.0 in
05:30 1.2 °F 0.9 °F 1005.3 in Calm   4.8 mph 98 % 0.0 in
05:45 1.3 °F 1.0 °F 1005.6 in Calm   3.2 mph 98 % 0.0 in
06:00 1.3 °F 0.9 °F 1005.6 in Calm   3.2 mph 97 % 0.0 in
06:15 1.2 °F 0.8 °F 1006.0 in Calm     97 % 0.0 in
06:30 1.2 °F 0.9 °F 1006.0 in Calm     98 % 0.0 in
06:45 1.2 °F 0.9 °F 1006.3 in Calm   4.8 mph 98 % 0.0 in
07:00 1.3 °F 1.0 °F 1006.3 in Calm     98 % 0.0 in
07:15 1.4 °F 1.1 °F 1006.3 in Calm   3.2 mph 98 % 0.0 in
07:30 1.3 °F 1.1 °F 1006.7 in Calm   6.4 mph 98 % 0.0 in
07:45 1.3 °F 1.1 °F 1007.0 in West 1.6 mph 11.3 mph 98 % 0.0 in
08:00 1.3 °F 0.9 °F 1007.3 in WSW 1.6 mph 8.0 mph 97 % 0.0 in
08:15 1.2 °F 0.8 °F 1007.3 in WNW 1.6 mph 4.8 mph 97 % 0.0 in
08:30 1.2 °F 0.8 °F 1007.7 in Calm   6.4 mph 97 % 0.0 in
08:45 1.2 °F 0.7 °F 1008.0 in WNW 1.6 mph 9.7 mph 97 % 0.0 in
09:00 1.1 °F 0.6 °F 1008.4 in WNW 4.8 mph 14.5 mph 97 % 0.0 in
09:15 1.1 °F 0.6 °F 1008.7 in NW 4.8 mph 11.3 mph 97 % 0.0 in
09:30 0.9 °F 0.4 °F 1008.7 in NW 4.8 mph 12.9 mph 96 % 0.0 in
09:45 0.9 °F 0.3 °F 1009.0 in WNW 1.6 mph 11.3 mph 96 % 0.0 in
10:00 0.9 °F 0.3 °F 1009.0 in WNW 3.2 mph 12.9 mph 96 % 0.0 in
10:15 0.9 °F 0.4 °F 1009.4 in WSW 1.6 mph 8.0 mph 96 % 0.0 in
10:30 1.0 °F 0.4 °F 1009.7 in WNW 3.2 mph 12.9 mph 96 % 0.0 in
10:45 0.9 °F 0.4 °F 1009.7 in NW 3.2 mph 12.9 mph 96 % 0.0 in
11:00 0.9 °F 0.2 °F 1009.7 in Calm   1.6 mph 95 % 0.0 in
11:15 0.7 °F 0.2 °F 1009.7 in Calm     96 % 0.0 in
11:30 0.7 °F 0.2 °F 1009.7 in Calm   3.2 mph 96 % 0.0 in
11:45 0.9 °F 0.3 °F 1009.7 in SSW 1.6 mph 6.4 mph 96 % 0.0 in
12:00 1.0 °F 0.4 °F 1009.7 in Calm   4.8 mph 96 % 0.0 in
12:15 1.2 °F 0.7 °F 1010.0 in Calm   4.8 mph 96 % 0.0 in
12:30 1.2 °F 0.5 °F 1010.0 in Calm     95 % 0.0 in
12:45 1.3 °F 0.6 °F 1010.0 in Calm   4.8 mph 95 % 0.0 in
13:00 1.4 °F 0.6 °F 1010.4 in SW 1.6 mph 8.0 mph 94 % 0.0 in
13:15 1.6 °F 0.7 °F 1010.4 in Calm   4.8 mph 94 % 0.0 in
13:30 1.6 °F 0.7 °F 1010.4 in Calm     94 % 0.0 in
14:15 1.7 °F 0.9 °F 1010.7 in SW 1.6 mph 6.4 mph 94 % 0.0 in
14:30 1.6 °F 0.7 °F 1010.7 in SW 1.6 mph 6.4 mph 94 % 0.0 in
14:45 1.5 °F 0.6 °F 1010.7 in SW 1.6 mph 4.8 mph 94 % 0.0 in
15:00 1.2 °F 0.4 °F 1010.7 in Calm   1.6 mph 94 % 0.0 in
15:15 0.9 °F 0.2 °F 1010.7 in Calm     95 % 0.0 in
15:30 0.7 °F 0.0 °F 1010.7 in Calm     95 % 0.0 in
15:45 0.4 °F -0.3 °F 1010.7 in Calm   3.2 mph 95 % 0.0 in
16:00 0.4 °F -0.2 °F 1010.7 in Calm     96 % 0.0 in
16:15 0.4 °F -0.2 °F 1010.7 in SW 1.6 mph 4.8 mph 96 % 0.0 in
16:30 0.5 °F -0.1 °F 1010.4 in SW 3.2 mph 6.4 mph 96 % 0.0 in
16:45 0.4 °F -0.2 °F 1010.4 in SW 1.6 mph 6.4 mph 96 % 0.0 in
17:00 0.4 °F 0.0 °F 1010.4 in SW 3.2 mph 9.7 mph 97 % 0.0 in
17:15 0.3 °F -0.1 °F 1010.0 in SSW 1.6 mph 9.7 mph 97 % 0.0 in
17:30 0.2 °F -0.2 °F 1010.0 in SSW 1.6 mph 6.4 mph 97 % 0.0 in
17:45 0.1 °F -0.3 °F 1010.0 in SSW 3.2 mph 8.0 mph 97 % 0.0 in
18:00 0.2 °F -0.3 °F 1010.0 in SSW 4.8 mph 9.7 mph 97 % 0.0 in
18:15 0.1 °F -0.3 °F 1010.0 in SSW 1.6 mph 6.4 mph 97 % 0.0 in
18:30 0.2 °F -0.3 °F 1010.0 in SSW 1.6 mph 8.0 mph 97 % 0.0 in
18:45 0.1 °F -0.3 °F 1009.7 in SSW 1.6 mph 9.7 mph 97 % 0.0 in
19:00 0.0 °F -0.4 °F 1009.4 in South 1.6 mph 8.0 mph 97 % 0.0 in
19:15 0.2 °F -0.3 °F 1009.4 in SSW 3.2 mph 8.0 mph 97 % 0.0 in
19:30 0.6 °F 0.1 °F 1009.0 in SSW 3.2 mph 8.0 mph 97 % 0.0 in
19:45 0.8 °F 0.4 °F 1009.0 in SSW 4.8 mph 11.3 mph 97 % 0.0 in
20:00 0.9 °F 0.5 °F 1009.0 in SSW 6.4 mph 12.9 mph 97 % 0.0 in
20:15 0.9 °F 0.5 °F 1008.7 in SSW 6.4 mph 14.5 mph 97 % 0.0 in
20:30 1.1 °F 0.6 °F 1008.4 in SSW 6.4 mph 14.5 mph 97 % 0.0 in
20:45 1.2 °F 0.7 °F 1008.0 in SSW 4.8 mph 19.3 mph 97 % 0.0 in
21:00 1.2 °F 0.8 °F 1007.7 in SSW 3.2 mph 11.3 mph 97 % 0.0 in
21:15 1.2 °F 0.8 °F 1007.7 in SSW 1.6 mph 9.7 mph 97 % 0.0 in
21:30 1.3 °F 0.9 °F 1007.7 in SSW 3.2 mph 8.0 mph 97 % 0.0 in
21:45 1.4 °F 1.0 °F 1007.3 in South 1.6 mph 8.0 mph 97 % 0.0 in
22:00 1.5 °F 1.1 °F 1007.0 in SSW 1.6 mph 6.4 mph 97 % 0.0 in
22:15 1.4 °F 0.8 °F 1006.7 in Calm   3.2 mph 96 % 0.0 in
22:45 1.3 °F 0.9 °F 1006.3 in Calm   6.4 mph 97 % 0.0 in
23:00 1.3 °F 0.9 °F 1006.0 in Calm   4.8 mph 97 % 0.0 in
23:15 1.4 °F 1.0 °F 1005.6 in SSE 1.6 mph 11.3 mph 97 % 0.0 in
23:30 1.5 °F 1.1 °F 1005.6 in SSW 3.2 mph 8.0 mph 97 % 0.0 in
23:45 1.7 °F 1.1 °F 1005.3 in SSW 3.2 mph 9.7 mph 96 % 0.0 in
Esan sääasema
Terveisin Weather Underground - 2.75 mb

Alkuperäinen skripti  Jim McMurry - jmcmurry@mwt.net Sovitettu myös templatelle  Wim van der Kuil - Leuven-Template.eu

Laitteet joita käytämme:

Sääasema
Davis VP2

Sääasemaohjelma
Cumulus

Sääaseman tietokone
Asus EeePC

Palveluntarjoaja
Suncomet

Davis VP2

Cumulus

Asus EeePC

Suncomet